Time;durP1;ratioP1;P1;durP2;ratioP2;P2;SDS_P1;SDS_P2;PMS_P1;PMS_P2;Temp;Humidity;BMP_temperature;BMP_pressure;BME280_temperature;BME280_humidity;BME280_pressure;Samples;Min_cycle;Max_cycle;Signal;HPM_P1;HPM_P2
2021/12/13 00:01:47;;;;;;;8.03;3.95;;;;;;;20.98;34.56;101890.87;1873926;76;22153;-40
2021/12/13 00:04:26;;;;;;;7.50;4.00;;;;;;;20.97;34.56;101891.37;1892729;76;22565;-40
2021/12/13 00:07:23;;;;;;;7.58;3.80;;;;;;;20.96;34.59;101883.46;1892689;76;22597;-40
2021/12/13 00:09:57;;;;;;;5.37;3.80;;;;;;;20.93;34.59;101882.78;1873920;76;22566;-40
2021/12/13 00:12:53;;;;;;;8.08;4.17;;;;;;;20.93;34.61;101881.43;1873900;76;22566;-40
2021/12/13 00:15:32;;;;;;;8.28;4.20;;;;;;;20.91;34.59;101867.28;1873921;76;22565;-40
2021/12/13 00:18:29;;;;;;;7.70;4.05;;;;;;;20.90;34.60;101866.95;1873869;76;22129;-40
2021/12/13 00:21:12;;;;;;;8.90;4.17;;;;;;;20.89;34.64;101857.17;1892716;76;22123;-40
2021/12/13 00:24:24;;;;;;;7.15;3.90;;;;;;;20.89;34.66;101858.52;1892693;76;22537;-40
2021/12/13 00:27:10;;;;;;;7.70;3.90;;;;;;;20.88;34.62;101854.63;1873928;76;22120;-40
2021/12/13 00:30:05;;;;;;;7.78;4.37;;;;;;;20.86;34.69;101853.47;1858011;76;27820;-40
2021/12/13 00:33:16;;;;;;;5.20;3.40;;;;;;;20.94;34.56;101863.39;1892680;76;22120;-40
2021/12/13 00:36:20;;;;;;;6.50;4.05;;;;;;;20.95;34.52;101864.23;1873926;76;22120;-40
2021/12/13 00:38:56;;;;;;;7.60;4.25;;;;;;;20.92;34.53;101857.31;1892725;76;22141;-39
2021/12/13 00:41:48;;;;;;;6.22;3.77;;;;;;;20.89;34.56;101855.82;1892797;76;22095;-39
2021/12/13 00:44:28;;;;;;;6.97;3.90;;;;;;;20.87;34.55;101839.45;1873926;76;22558;-40
2021/12/13 00:47:25;;;;;;;5.80;3.52;;;;;;;20.87;34.60;101847.04;1873888;76;22160;-40
2021/12/13 00:50:24;;;;;;;6.35;3.60;;;;;;;20.85;34.51;101848.25;1873909;76;22160;-40
2021/12/13 00:52:56;;;;;;;7.47;3.92;;;;;;;20.82;34.56;101842.69;1873910;76;22174;-40
2021/12/13 00:55:48;;;;;;;7.15;3.90;;;;;;;20.81;34.58;101842.36;1892668;76;22141;-40
2021/12/13 00:58:23;;;;;;;10.15;3.90;;;;;;;20.80;34.60;101828.53;1874035;76;22121;-40
2021/12/13 01:01:14;;;;;;;5.95;3.85;;;;;;;20.80;34.55;101823.13;1892787;76;22119;-40
2021/12/13 01:03:49;;;;;;;6.67;3.80;;;;;;;20.78;34.57;101821.10;1873927;76;22138;-40
2021/12/13 01:07:25;;;;;;;5.58;3.50;;;;;;;20.77;34.58;101819.94;1892669;76;22127;-40
2021/12/13 01:10:36;;;;;;;7.00;3.70;;;;;;;20.76;34.60;101831.25;1873910;76;22166;-40
2021/12/13 01:13:35;;;;;;;8.53;4.20;;;;;;;20.75;34.58;101819.27;1892658;76;22173;-40
2021/12/13 01:16:36;;;;;;;6.10;3.67;;;;;;;20.73;34.61;101809.16;1873920;76;22146;-40
2021/12/13 01:19:25;;;;;;;10.48;4.05;;;;;;;20.72;34.62;101807.48;1892699;76;22557;-40
2021/12/13 01:21:54;;;;;;;6.55;3.62;;;;;;;20.70;34.64;101795.49;1892715;76;22119;-40
2021/12/13 01:24:40;;;;;;;6.17;3.60;;;;;;;20.70;34.63;101793.30;1873920;76;22150;-40
2021/12/13 01:27:12;;;;;;;7.08;3.35;;;;;;;20.67;34.65;101788.61;1892661;76;22568;-40
2021/12/13 01:29:49;;;;;;;8.20;3.72;;;;;;;20.67;34.65;101784.55;1873929;76;22121;-41
2021/12/13 01:32:21;;;;;;;12.80;3.72;;;;;;;20.67;34.66;101789.12;1873923;76;22121;-41
2021/12/13 01:35:18;;;;;;;10.43;3.70;;;;;;;20.67;34.71;101785.07;1874031;76;22145;-40
2021/12/13 01:37:53;;;;;;;11.63;4.22;;;;;;;20.66;34.74;101778.00;1873928;76;22206;-40
2021/12/13 01:40:47;;;;;;;12.07;4.40;;;;;;;20.66;34.68;101784.74;1873924;76;22184;-40
2021/12/13 01:43:29;;;;;;;12.03;4.37;;;;;;;20.66;34.63;101780.18;1873933;76;22120;-40
2021/12/13 01:46:21;;;;;;;9.43;3.92;;;;;;;20.68;34.74;101779.98;1873921;76;22127;-40
2021/12/13 01:49:12;;;;;;;17.50;4.25;;;;;;;20.70;34.81;101783.85;1874024;76;22136;-40
2021/12/13 01:51:44;;;;;;;14.90;4.78;;;;;;;20.72;34.83;101782.67;1873742;76;22561;-42
2021/12/13 01:54:21;;;;;;;15.25;5.08;;;;;;;20.75;34.87;101780.10;1890021;76;22116;-42
2021/12/13 02:00:21;;;;;;;13.45;4.80;;;;;;;20.91;34.73;101788.10;1873891;76;22120;-41
2021/12/13 02:02:53;;;;;;;13.25;4.60;;;;;;;20.99;34.62;101785.86;1892729;76;22119;-42
2021/12/13 02:05:44;;;;;;;11.48;4.22;;;;;;;21.02;34.53;101780.08;1873896;76;22574;-42
2021/12/13 02:08:20;;;;;;;17.82;4.45;;;;;;;21.04;34.52;101790.20;1892826;76;22128;-42
2021/12/13 02:10:54;;;;;;;18.27;5.15;;;;;;;21.09;34.49;101800.80;1857916;76;28348;-40
2021/12/13 02:13:38;;;;;;;14.43;4.40;;;;;;;21.18;34.38;101805.63;1873923;76;22140;-42
2021/12/13 02:19:17;;;;;;;13.30;4.75;;;;;;;21.31;34.16;101788.28;1873876;76;22141;-41
2021/12/13 02:21:51;;;;;;;17.60;5.08;;;;;;;21.33;34.14;101786.77;1892702;76;22127;-40
2021/12/13 02:24:41;;;;;;;18.23;4.53;;;;;;;21.36;34.05;101788.60;1873964;76;22129;-40
2021/12/13 02:27:13;;;;;;;19.00;4.92;;;;;;;21.39;34.05;101780.62;1873871;76;22565;-41
2021/12/13 02:30:12;;;;;;;14.80;4.42;;;;;;;21.42;33.99;101783.80;1873884;76;22120;-41
2021/12/13 02:32:44;;;;;;;14.23;4.20;;;;;;;21.46;33.91;101763.17;1874045;76;22128;-42
2021/12/13 02:35:18;;;;;;;16.95;4.42;;;;;;;21.48;33.90;101761.94;1874006;76;22125;-42
2021/12/13 02:38:15;;;;;;;12.37;3.95;;;;;;;21.52;33.89;101754.30;1873888;76;22125;-42
2021/12/13 02:40:47;;;;;;;17.10;4.15;;;;;;;21.55;33.82;101756.14;1892700;76;22605;-41
2021/12/13 02:43:23;;;;;;;12.60;5.00;;;;;;;21.60;33.76;101752.88;1873893;76;22145;-40
2021/12/13 02:46:14;;;;;;;13.35;4.08;;;;;;;21.64;33.74;101752.80;1892688;76;22187;-43
2021/12/13 02:48:51;;;;;;;12.50;4.25;;;;;;;21.68;33.71;101763.58;1892818;76;22096;-41
2021/12/13 02:51:34;;;;;;;15.78;4.00;;;;;;;21.72;33.58;101748.66;1874030;76;22125;-42
2021/12/13 02:54:18;;;;;;;14.90;4.42;;;;;;;21.77;33.55;101737.28;1873916;76;22574;-41
2021/12/13 02:57:22;;;;;;;13.03;4.70;;;;;;;21.82;33.43;101730.27;1892649;76;22177;-41
2021/12/13 03:00:02;;;;;;;20.00;5.70;;;;;;;21.86;33.37;101719.41;1873911;76;22549;-42
2021/12/13 03:02:57;;;;;;;13.53;4.37;;;;;;;21.91;33.32;101731.85;1873865;76;22146;-42
2021/12/13 03:05:37;;;;;;;18.12;4.85;;;;;;;21.95;33.29;101731.80;1873880;76;22623;-42
2021/12/13 03:08:18;;;;;;;19.60;4.37;;;;;;;22.00;33.23;101735.81;1892699;76;22104;-43
2021/12/13 03:10:55;;;;;;;16.17;5.08;;;;;;;22.04;33.13;101733.06;1892698;76;22135;-40
2021/12/13 03:13:29;;;;;;;13.00;4.47;;;;;;;22.09;33.11;101729.27;1892695;76;22132;-41
2021/12/13 03:16:13;;;;;;;17.82;5.05;;;;;;;22.14;33.01;101724.98;1892693;76;22136;-41
2021/12/13 03:18:53;;;;;;;14.05;4.55;;;;;;;22.21;32.93;101718.31;1873924;76;22096;-42
2021/12/13 03:21:48;;;;;;;18.57;4.80;;;;;;;22.26;32.87;101709.62;1873914;76;22132;-41
2021/12/13 03:24:40;;;;;;;18.90;5.47;;;;;;;22.33;32.72;101707.81;1892692;76;22157;-41
2021/12/13 03:27:35;;;;;;;21.75;5.83;;;;;;;22.38;32.63;101714.84;1876635;76;27864;-42
2021/12/13 03:30:37;;;;;;;16.25;5.03;;;;;;;22.52;32.43;101720.71;1892701;76;22145;-42
2021/12/13 03:33:58;;;;;;;15.68;5.22;;;;;;;22.59;32.26;101722.15;1892683;76;22119;-41
2021/12/13 03:36:55;;;;;;;18.95;4.92;;;;;;;22.64;32.13;101707.51;1873925;76;22120;-41
2021/12/13 03:39:41;;;;;;;15.93;4.90;;;;;;;22.67;32.03;101699.81;1873919;76;22566;-40
2021/12/13 03:42:46;;;;;;;20.05;4.80;;;;;;;22.73;32.00;101698.22;1873885;76;22565;-42
2021/12/13 03:45:28;;;;;;;20.85;5.62;;;;;;;22.76;31.95;101697.81;1858020;76;27855;-42
2021/12/13 03:48:00;;;;;;;17.25;4.67;;;;;;;22.88;31.89;101697.61;1873895;76;22565;-41
2021/12/13 03:50:56;;;;;;;17.52;4.60;;;;;;;22.98;31.70;101691.05;1873881;76;22157;-41
2021/12/13 03:53:30;;;;;;;13.53;4.15;;;;;;;23.03;31.67;101691.30;1873901;76;22133;-41
2021/12/13 03:56:09;;;;;;;17.82;5.17;;;;;;;23.08;31.64;101693.72;1873934;76;22141;-42
2021/12/13 03:58:48;;;;;;;20.55;5.17;;;;;;;23.12;31.54;101688.23;1892723;76;22112;-41
2021/12/13 04:01:45;;;;;;;17.65;5.00;;;;;;;23.19;31.48;101682.84;1873898;76;22121;-42
2021/12/13 04:04:23;;;;;;;17.17;4.70;;;;;;;23.25;31.37;101683.95;1874049;76;22140;-41
2021/12/13 04:07:03;;;;;;;13.32;4.50;;;;;;;23.31;31.34;101686.69;1892724;76;22557;-41
2021/12/13 04:09:37;;;;;;;12.85;4.50;;;;;;;23.37;31.23;101680.46;1873541;76;22145;-40
2021/12/13 04:12:09;;;;;;;14.75;4.62;;;;;;;23.43;31.10;101672.04;1892699;76;22581;-40
2021/12/13 04:14:48;;;;;;;21.05;5.15;;;;;;;23.49;31.00;101674.49;1892830;76;22586;-40
2021/12/13 04:17:56;;;;;;;23.55;5.45;;;;;;;23.54;30.97;101677.44;1892697;76;22115;-39
2021/12/13 04:20:34;;;;;;;16.80;4.80;;;;;;;23.58;30.93;101676.84;1892639;76;22128;-41
2021/12/13 04:23:14;;;;;;;23.38;5.22;;;;;;;23.63;30.86;101679.78;1873964;76;22132;-41
2021/12/13 04:25:48;;;;;;;16.52;4.92;;;;;;;23.70;30.78;101680.66;1892532;76;22151;-41
2021/12/13 04:28:33;;;;;;;19.25;4.83;;;;;;;23.76;30.70;101681.75;1873756;76;22141;-41
2021/12/13 04:31:29;;;;;;;14.75;4.47;;;;;;;23.82;30.55;101676.87;1873844;76;22149;-42
2021/12/13 04:34:03;;;;;;;18.25;6.58;;;;;;;23.89;30.52;101677.71;1892691;76;22128;-41
2021/12/13 04:36:46;;;;;;;17.48;4.55;;;;;;;23.93;30.42;101676.27;1873840;76;22170;-40
2021/12/13 04:39:37;;;;;;;11.43;3.87;;;;;;;23.99;30.29;101662.39;1873887;76;22129;-40
2021/12/13 04:42:13;;;;;;;16.07;4.90;;;;;;;24.04;30.25;101662.62;1873825;76;22125;-42
2021/12/13 04:45:09;;;;;;;17.60;5.70;;;;;;;24.09;30.18;101664.23;1892679;76;22137;-42
2021/12/13 04:48:09;;;;;;;12.47;4.40;;;;;;;24.12;30.13;101674.66;1873920;76;22138;-40
2021/12/13 04:51:12;;;;;;;15.85;4.35;;;;;;;24.16;30.10;101666.42;1892706;76;22119;-41
2021/12/13 04:53:58;;;;;;;11.97;4.72;;;;;;;24.21;30.01;101669.35;1873874;76;22121;-40
2021/12/13 04:56:50;;;;;;;17.52;4.65;;;;;;;24.25;29.95;101667.07;1873899;76;22121;-40
2021/12/13 04:59:22;;;;;;;15.13;5.33;;;;;;;24.28;29.92;101654.95;1873873;76;22149;-38
2021/12/13 05:02:13;;;;;;;11.53;4.47;;;;;;;24.32;30.00;101657.05;1892672;76;22156;-45
2021/12/13 05:04:44;;;;;;;21.68;4.72;;;;;;;24.36;29.89;101658.34;1873633;76;22171;-46
2021/12/13 05:07:36;;;;;;;18.40;5.28;;;;;;;24.36;29.81;101652.04;1873677;76;22121;-50
2021/12/13 05:10:10;;;;;;;17.55;5.83;;;;;;;24.36;30.19;101658.83;1873679;76;22159;-52
2021/12/13 05:13:11;;;;;;;23.42;6.20;;;;;;;24.21;30.16;101653.06;1892437;76;22163;-45
2021/12/13 05:15:55;;;;;;;19.65;5.70;;;;;;;24.02;30.53;101643.52;1873761;76;22561;-47
2021/12/13 05:18:30;;;;;;;19.55;5.97;;;;;;;23.81;31.04;101649.42;1873795;76;22162;-47
2021/12/13 05:21:08;;;;;;;19.87;5.72;;;;;;;23.63;31.40;101643.68;1857955;76;27873;-46
2021/12/13 05:24:03;;;;;;;16.52;5.97;;;;;;;23.54;31.66;101636.75;1892573;76;22128;-55
2021/12/13 05:26:53;;;;;;;20.27;5.70;;;;;;;23.43;31.96;101634.07;1873847;76;20137;-56
2021/12/13 05:29:36;;;;;;;20.62;7.60;;;;;;;23.31;31.93;101637.05;1873957;76;22129;-44
2021/12/13 05:32:33;;;;;;;26.42;10.38;;;;;;;23.21;31.92;101640.13;1892721;76;22135;-44
2021/12/13 05:35:14;;;;;;;21.90;9.45;;;;;;;23.14;31.71;101646.84;1873851;76;22150;-44
2021/12/13 05:37:56;;;;;;;21.30;8.78;;;;;;;23.07;31.57;101645.98;1873921;76;22170;-44
2021/12/13 05:40:41;;;;;;;21.37;8.60;;;;;;;23.01;31.56;101633.23;1873774;76;22225;-45
2021/12/13 05:43:21;;;;;;;20.32;8.45;;;;;;;22.97;31.61;101644.66;1867919;76;22160;-42
2021/12/13 05:46:17;;;;;;;17.70;7.83;;;;;;;22.94;31.78;101643.17;1891548;76;22148;-45
2021/12/13 05:48:53;;;;;;;21.20;7.67;;;;;;;22.91;31.83;101644.91;1892261;76;22160;-52
2021/12/13 05:51:51;;;;;;;16.45;7.80;;;;;;;22.88;31.32;101634.45;1864965;76;22641;-47
2021/12/13 05:54:31;;;;;;;16.27;7.30;;;;;;;22.82;30.89;101636.09;1873384;76;22141;-53
2021/12/13 05:57:34;;;;;;;20.60;7.20;;;;;;;22.80;30.29;101638.66;1873320;76;22129;-53
2021/12/13 06:00:14;;;;;;;28.12;8.95;;;;;;;22.77;30.20;101637.16;1865947;76;22176;-48
2021/12/13 06:03:16;;;;;;;22.17;8.18;;;;;;;22.76;30.50;101633.31;1873162;76;22157;-53
2021/12/13 06:06:10;;;;;;;21.80;7.67;;;;;;;22.75;30.73;101631.64;1873285;76;22453;-52
2021/12/13 06:09:01;;;;;;;18.55;8.30;;;;;;;22.72;30.93;101623.37;1872944;76;22609;-50
2021/12/13 06:11:58;;;;;;;21.60;8.75;;;;;;;22.69;31.07;101625.14;1892002;76;22148;-46
2021/12/13 06:14:31;;;;;;;20.23;9.63;;;;;;;22.67;31.18;101625.84;1873320;76;22676;-55
2021/12/13 06:17:21;;;;;;;20.02;8.48;;;;;;;22.65;31.45;101613.86;1860091;76;22219;-60
2021/12/13 06:20:18;;;;;;;23.73;9.45;;;;;;;22.64;31.64;101618.12;1865802;76;22189;-53
2021/12/13 06:23:18;;;;;;;22.17;11.20;;;;;;;22.63;31.77;101618.65;1857260;76;28419;-58
2021/12/13 06:26:04;;;;;;;20.20;11.08;;;;;;;22.68;31.93;101620.25;1872869;76;22192;-55
2021/12/13 06:28:59;;;;;;;23.22;12.13;;;;;;;22.71;32.00;101611.70;1873450;76;22226;-56
2021/12/13 06:31:50;;;;;;;20.12;11.55;;;;;;;22.71;32.05;101615.77;1872877;76;22556;-50
2021/12/13 06:34:26;;;;;;;28.00;15.40;;;;;;;22.71;32.15;101615.77;1873279;76;22149;-54
2021/12/13 06:37:27;;;;;;;29.85;13.40;;;;;;;22.69;32.35;101617.02;1873100;76;22226;-55
2021/12/13 06:40:29;;;;;;;30.70;14.87;;;;;;;22.68;32.38;101620.25;1873187;76;22145;-51
2021/12/13 06:43:11;;;;;;;26.33;14.80;;;;;;;22.70;32.32;101617.33;1873053;76;22188;-51
2021/12/13 06:46:09;;;;;;;23.67;14.28;;;;;;;22.68;32.18;101629.73;1891296;76;22172;-50
2021/12/13 06:48:44;;;;;;;24.15;15.10;;;;;;;22.67;32.14;101624.48;1873050;76;22146;-51
2021/12/13 06:51:18;;;;;;;27.30;15.70;;;;;;;22.67;32.09;101627.19;1873132;76;22586;-50
2021/12/13 06:54:27;;;;;;;24.52;15.40;;;;;;;22.66;32.04;101621.47;1891497;76;22172;-50
2021/12/13 06:57:18;;;;;;;26.70;15.25;;;;;;;22.66;32.02;101618.23;1872910;76;22658;-47
2021/12/13 06:59:55;;;;;;;29.30;17.05;;;;;;;22.65;31.95;101621.15;1873170;76;22152;-45
2021/12/13 07:02:48;;;;;;;31.00;18.02;;;;;;;22.63;32.09;101621.84;1873063;76;22168;-47
2021/12/13 07:05:27;;;;;;;27.13;17.25;;;;;;;22.61;32.48;101632.05;1873204;76;22192;-48
2021/12/13 07:08:34;;;;;;;27.75;17.70;;;;;;;22.61;32.80;101622.57;1873196;76;22245;-46
2021/12/13 07:11:17;;;;;;;31.33;19.50;;;;;;;22.59;32.84;101618.72;1892127;76;22171;-44
2021/12/13 07:14:13;;;;;;;30.57;20.57;;;;;;;22.60;32.90;101623.09;1872911;76;22188;-49
2021/12/13 07:16:52;;;;;;;32.48;22.55;;;;;;;22.61;33.00;101626.63;1872951;76;22655;-54
2021/12/13 07:19:26;;;;;;;32.85;21.25;;;;;;;22.62;33.11;101623.72;1872977;76;22164;-44
2021/12/13 07:22:01;;;;;;;38.60;20.37;;;;;;;22.63;33.20;101625.42;1873135;76;22182;-49
2021/12/13 07:24:50;;;;;;;30.62;21.37;;;;;;;22.67;33.43;101624.48;1891783;76;22176;-50
2021/12/13 07:27:29;;;;;;;35.13;21.82;;;;;;;22.70;33.50;101624.11;1873361;76;22132;-47
2021/12/13 07:30:27;;;;;;;36.05;24.50;;;;;;;22.73;33.60;101627.78;1892238;76;22153;-44
2021/12/13 07:33:19;;;;;;;38.60;25.20;;;;;;;22.78;33.69;101631.26;1873361;76;22586;-44
2021/12/13 07:35:53;;;;;;;39.90;25.80;;;;;;;22.81;33.78;101635.74;1873263;76;22169;-45
2021/12/13 07:38:26;;;;;;;40.10;25.57;;;;;;;22.84;33.81;101644.84;1873183;76;22639;-46
2021/12/13 07:41:06;;;;;;;38.28;25.57;;;;;;;22.86;33.82;101634.63;1892033;76;22152;-49
2021/12/13 07:43:56;;;;;;;38.60;24.18;;;;;;;22.90;33.81;101631.05;1873233;76;22209;-46
2021/12/13 07:46:30;;;;;;;35.90;24.30;;;;;;;22.93;33.89;101625.25;1872905;76;22196;-46
2021/12/13 07:49:22;;;;;;;35.80;23.75;;;;;;;22.95;33.95;101638.90;1891892;76;22152;-44
2021/12/13 07:51:56;;;;;;;42.33;25.92;;;;;;;22.98;33.94;101640.91;1891989;76;22188;-43
2021/12/13 07:54:47;;;;;;;36.05;23.55;;;;;;;23.01;33.85;101645.42;1872905;76;22148;-46
2021/12/13 07:57:31;;;;;;;41.10;25.45;;;;;;;23.03;33.80;101639.28;1873186;76;22609;-45
2021/12/13 08:00:17;;;;;;;37.23;23.70;;;;;;;23.06;33.75;101650.25;1892095;76;22504;-57
2021/12/13 08:03:12;;;;;;;36.60;23.32;;;;;;;23.07;33.79;101650.56;1873063;76;22683;-51
2021/12/13 08:06:08;;;;;;;36.63;24.67;;;;;;;23.08;33.69;101654.95;1841695;76;22214;-57
2021/12/13 08:08:52;;;;;;;34.73;22.93;;;;;;;23.09;33.61;101652.03;1841896;76;22188;-43
2021/12/13 08:11:38;;;;;;;33.40;24.30;;;;;;;23.10;33.78;101654.22;1873189;76;22189;-44
2021/12/13 08:14:36;;;;;;;34.43;22.85;;;;;;;23.13;33.84;101659.25;1873396;76;22182;-49
2021/12/13 08:17:17;;;;;;;40.52;24.70;;;;;;;23.15;33.92;101655.84;1891817;76;22628;-50
2021/12/13 08:20:03;;;;;;;31.27;23.02;;;;;;;23.20;33.84;101654.72;1873190;76;22180;-49
2021/12/13 08:22:51;;;;;;;36.95;24.12;;;;;;;23.27;33.69;101649.33;1873157;76;22180;-48
2021/12/13 08:25:34;;;;;;;34.55;23.77;;;;;;;23.33;33.54;101646.64;1873283;76;22200;-50
2021/12/13 08:28:10;;;;;;;34.50;22.77;;;;;;;23.40;33.42;101639.91;1891957;76;22155;-48
2021/12/13 08:31:02;;;;;;;32.13;24.27;;;;;;;23.47;33.22;101643.48;1892272;76;22191;-50
2021/12/13 08:33:41;;;;;;;34.67;23.42;;;;;;;23.53;33.13;101637.80;1873400;76;22213;-48
2021/12/13 08:36:29;;;;;;;30.82;23.12;;;;;;;23.59;33.03;101640.52;1873241;76;22188;-51
2021/12/13 08:39:22;;;;;;;32.63;22.58;;;;;;;23.65;32.93;101625.34;1873370;76;22149;-48
2021/12/13 08:42:00;;;;;;;35.17;23.22;;;;;;;23.73;32.77;101628.41;1873080;76;22609;-48
2021/12/13 08:44:40;;;;;;;31.75;22.35;;;;;;;23.77;32.68;101625.61;1872849;76;22208;-48
2021/12/13 08:47:42;;;;;;;30.00;21.80;;;;;;;23.82;32.57;101614.45;1872813;76;22153;-48
2021/12/13 08:50:28;;;;;;;35.43;21.80;;;;;;;23.87;32.33;101611.96;1878511;76;22207;-47
2021/12/13 08:53:05;;;;;;;28.10;19.77;;;;;;;23.92;32.17;101605.39;1873549;76;22145;-51
2021/12/13 08:55:44;;;;;;;35.48;21.50;;;;;;;23.95;32.07;101612.30;1873566;76;22605;-49
2021/12/13 08:58:18;;;;;;;33.63;20.65;;;;;;;23.99;31.99;101606.75;1873727;76;22149;-50
2021/12/13 09:01:10;;;;;;;28.73;19.10;;;;;;;24.03;31.84;101603.12;1873719;76;22534;-50
2021/12/13 09:03:48;;;;;;;30.05;18.40;;;;;;;24.06;31.74;101605.43;1892102;76;22236;-49
2021/12/13 09:06:31;;;;;;;25.82;17.42;;;;;;;24.08;31.66;101599.26;1873719;76;22136;-51
2021/12/13 09:09:22;;;;;;;26.50;16.42;;;;;;;24.10;31.58;101589.87;1873751;76;22124;-52
2021/12/13 09:12:02;;;;;;;26.45;17.55;;;;;;;24.10;31.48;101592.59;1873641;76;22145;-51
2021/12/13 09:15:03;;;;;;;27.60;17.17;;;;;;;24.09;31.44;101603.14;1892594;76;22163;-51
2021/12/13 09:17:58;;;;;;;23.87;15.95;;;;;;;24.10;31.43;101596.66;1853601;76;22236;-53
2021/12/13 09:20:41;;;;;;;26.10;16.57;;;;;;;24.10;31.36;101598.02;1873922;76;20114;-51
2021/12/13 09:23:49;;;;;;;24.87;15.53;;;;;;;24.11;31.34;101590.71;1873734;76;22638;-51
2021/12/13 09:26:25;;;;;;;24.90;14.87;;;;;;;24.12;31.29;101592.38;1892725;76;22172;-51
2021/12/13 09:29:01;;;;;;;23.87;15.50;;;;;;;24.14;31.25;101597.09;1873816;76;22152;-50
2021/12/13 09:31:52;;;;;;;24.35;14.73;;;;;;;24.15;31.19;101587.91;1892643;76;22152;-53
2021/12/13 09:34:45;;;;;;;23.32;13.55;;;;;;;24.17;31.12;101577.66;1870117;75;22161;-54
2021/12/13 09:37:35;;;;;;;23.42;13.65;;;;;;;24.20;31.03;101584.05;1873907;76;22121;-51
2021/12/13 09:40:32;;;;;;;21.82;14.10;;;;;;;24.22;30.98;101587.38;1892658;76;22160;-52
2021/12/13 09:43:05;;;;;;;22.80;13.62;;;;;;;24.22;30.94;101578.70;1873893;76;22136;-48
2021/12/13 09:45:43;;;;;;;22.90;13.72;;;;;;;24.24;30.93;101575.80;1858128;76;22163;-48
2021/12/13 09:48:34;;;;;;;23.92;14.45;;;;;;;24.25;31.01;101577.98;1892631;76;22612;-49
2021/12/13 09:51:26;;;;;;;24.55;14.00;;;;;;;24.24;31.16;101581.23;1873472;76;22162;-53
2021/12/13 09:54:21;;;;;;;24.02;13.72;;;;;;;24.21;31.14;101587.90;1892045;76;22148;-54
2021/12/13 09:57:17;;;;;;;28.30;14.68;;;;;;;24.20;31.07;101586.76;1873571;76;22157;-51
2021/12/13 09:59:52;;;;;;;26.57;14.90;;;;;;;24.16;31.06;101582.25;1892515;76;22132;-55
2021/12/13 10:02:48;;;;;;;31.35;15.13;;;;;;;24.14;31.16;101572.66;1873687;76;22590;-54
2021/12/13 10:05:28;;;;;;;22.22;13.72;;;;;;;24.11;31.21;101564.40;1873764;76;22170;-44
2021/12/13 10:08:04;;;;;;;26.05;13.68;;;;;;;24.10;31.28;101559.19;1873757;76;22162;-44
2021/12/13 10:10:44;;;;;;;24.23;13.90;;;;;;;24.08;31.28;101553.94;1873557;76;22618;-44
2021/12/13 10:13:22;;;;;;;24.85;13.68;;;;;;;24.07;31.24;101552.28;1892331;76;22148;-50
2021/12/13 10:16:02;;;;;;;23.55;12.73;;;;;;;24.08;31.28;101555.83;1873552;76;22585;-50
2021/12/13 10:18:53;;;;;;;26.57;13.88;;;;;;;24.05;31.30;101555.73;1892268;76;22148;-48
2021/12/13 10:21:30;;;;;;;22.40;13.30;;;;;;;24.05;31.42;101543.52;1873240;76;22197;-47
2021/12/13 10:24:22;;;;;;;25.00;13.65;;;;;;;24.03;31.50;101533.38;1873522;76;22626;-48
2021/12/13 10:27:10;;;;;;;23.75;13.98;;;;;;;24.04;31.49;101540.99;1873542;76;22178;-48
2021/12/13 10:29:48;;;;;;;24.23;12.63;;;;;;;24.04;31.42;101542.34;1873526;76;22132;-46
2021/12/13 10:32:27;;;;;;;20.00;11.88;;;;;;;24.02;31.39;101545.80;1873122;76;22204;-47
2021/12/13 10:35:03;;;;;;;22.93;12.43;;;;;;;24.00;31.45;101558.77;1891731;76;23227;-46
2021/12/13 10:38:01;;;;;;;23.45;12.60;;;;;;;23.97;31.46;101557.28;1862815;76;22152;-56
2021/12/13 10:40:58;;;;;;;22.98;12.85;;;;;;;23.95;31.46;101545.28;1862521;76;22164;-51
2021/12/13 10:43:49;;;;;;;24.40;12.43;;;;;;;23.94;31.48;101540.05;1873290;76;22197;-49
2021/12/13 10:46:45;;;;;;;20.70;11.57;;;;;;;23.94;31.65;101549.02;1873460;76;22200;-46
2021/12/13 10:49:39;;;;;;;21.60;11.88;;;;;;;23.97;31.91;101536.41;1873339;76;22149;-48
2021/12/13 10:52:22;;;;;;;21.97;12.05;;;;;;;23.98;31.95;101525.85;1873255;76;22174;-47
2021/12/13 10:55:18;;;;;;;24.27;12.53;;;;;;;24.04;32.09;101526.89;1868899;76;22144;-47
2021/12/13 10:57:51;;;;;;;21.05;13.08;;;;;;;24.07;32.10;101516.16;1873411;76;22172;-47
2021/12/13 11:00:42;;;;;;;23.35;13.13;;;;;;;24.12;32.14;101520.44;1873170;76;22153;-55
2021/12/13 11:03:25;;;;;;;22.82;13.88;;;;;;;24.16;32.23;101511.66;1872862;76;22222;-50
2021/12/13 11:06:17;;;;;;;23.38;13.40;;;;;;;24.21;32.42;101517.83;1872795;76;22168;-48
2021/12/13 11:08:50;;;;;;;24.02;14.38;;;;;;;24.25;32.47;101516.89;1873448;76;22610;-55
2021/12/13 11:11:52;;;;;;;27.55;14.07;;;;;;;24.29;32.40;101505.41;1891709;76;22136;-55
2021/12/13 11:14:24;;;;;;;23.98;15.05;;;;;;;24.34;32.23;101506.97;1891817;76;22200;-45
2021/12/13 11:17:19;;;;;;;23.57;15.00;;;;;;;24.35;32.14;101503.20;1872668;75;22172;-46
2021/12/13 11:20:21;;;;;;;28.47;16.48;;;;;;;24.34;32.20;101494.74;1873004;76;22174;-52
2021/12/13 11:23:04;;;;;;;27.15;16.32;;;;;;;24.30;32.25;101481.27;1873003;76;22202;-58
2021/12/13 11:25:59;;;;;;;24.75;15.70;;;;;;;24.27;32.30;101484.92;1873387;76;22727;-55
2021/12/13 11:28:32;;;;;;;26.68;17.73;;;;;;;24.23;32.28;101490.80;1875837;76;27940;-57
2021/12/13 11:31:15;;;;;;;27.27;16.93;;;;;;;24.28;32.17;101483.38;1872203;76;22200;-55
2021/12/13 11:34:14;;;;;;;25.92;17.45;;;;;;;24.31;32.06;101480.22;1873254;76;22144;-58
2021/12/13 11:37:36;;;;;;;29.37;17.60;;;;;;;24.29;32.03;101470.63;1873066;76;22229;-59
2021/12/13 11:40:52;;;;;;;30.40;17.82;;;;;;;24.26;31.99;101461.01;1873257;76;22188;-60
2021/12/13 11:43:55;;;;;;;26.25;16.85;;;;;;;24.20;32.07;101456.43;1873400;76;22166;-60
2021/12/13 11:46:35;;;;;;;24.87;18.00;;;;;;;24.14;32.16;101464.07;1872812;76;22153;-60
2021/12/13 11:50:15;;;;;;;26.93;17.92;;;;;;;24.07;32.26;101470.01;1891874;76;22160;-59
2021/12/13 11:53:35;;;;;;;29.30;17.45;;;;;;;23.99;32.37;101476.47;1891670;76;22167;-60
2021/12/13 11:56:27;;;;;;;32.55;18.35;;;;;;;23.92;32.49;101476.48;1891999;76;22167;-59
2021/12/13 11:59:30;;;;;;;34.18;18.82;;;;;;;23.87;32.64;101480.34;1873372;76;22165;-59
2021/12/13 12:02:31;;;;;;;28.12;17.65;;;;;;;23.83;32.72;101487.75;1873460;76;22201;-45
2021/12/13 12:05:48;;;;;;;28.60;18.60;;;;;;;23.79;32.79;101483.25;1873226;76;22655;-57
2021/12/13 12:08:57;;;;;;;29.98;19.05;;;;;;;23.74;32.80;101480.33;1876036;76;27904;-57
2021/12/13 12:12:14;;;;;;;38.83;18.10;;;;;;;23.77;32.82;101480.45;1872950;76;22212;-48
2021/12/13 12:15:01;;;;;;;31.12;21.27;;;;;;;23.77;32.97;101486.70;1876105;76;38726;-51
2021/12/13 12:17:49;;;;;;;30.35;19.05;;;;;;;23.79;33.08;101491.39;1892095;76;22593;-56
2021/12/13 12:20:32;;;;;;;35.20;19.05;;;;;;;23.79;33.12;101490.03;1873505;76;22152;-59
2021/12/13 12:23:31;;;;;;;29.80;19.67;;;;;;;23.75;33.09;101494.73;1873356;76;22174;-48
2021/12/13 12:26:22;;;;;;;38.92;18.95;;;;;;;23.69;33.21;101495.03;1873282;76;22178;-53
2021/12/13 12:29:19;;;;;;;31.80;19.67;;;;;;;23.64;33.38;101496.17;1872866;76;22633;-53
2021/12/13 12:32:24;;;;;;;;;;;;;;;;;;;;;
2021/12/13 12:34:58;;;;;;;33.20;20.05;;;;;;;23.59;33.63;101495.93;1892029;76;22629;-60
2021/12/13 12:38:23;;;;;;;35.65;20.43;;;;;;;23.55;33.80;101491.95;1892266;76;22169;-47
2021/12/13 12:41:13;;;;;;;31.37;19.75;;;;;;;23.53;33.97;101491.34;1873005;76;22637;-48
2021/12/13 12:43:52;;;;;;;31.17;20.45;;;;;;;23.51;33.95;101498.82;1873039;76;22205;-56
2021/12/13 12:46:41;;;;;;;33.02;20.30;;;;;;;23.46;34.12;101493.48;1873099;76;22128;-49
2021/12/13 12:49:16;;;;;;;30.60;19.20;;;;;;;23.44;34.20;101488.80;1891851;76;22161;-48
2021/12/13 12:52:27;;;;;;;29.50;20.57;;;;;;;23.42;34.33;101488.16;1874142;75;22239;-46
2021/12/13 12:54:58;;;;;;;32.65;20.80;;;;;;;23.41;34.39;101491.08;1873080;76;22637;-44